createdAt,value
2022-10-31T00:01:09.848Z,8.05
2022-10-31T00:06:02.693Z,7.75
2022-10-31T00:08:29.319Z,7.45
2022-10-31T00:10:55.719Z,8.35
2022-10-31T00:15:53.410Z,8.25
2022-10-31T00:18:19.909Z,7.75
2022-10-31T00:20:46.488Z,8.85
2022-10-31T00:23:12.940Z,8.15
2022-10-31T00:25:40.506Z,8.70
2022-10-31T00:28:09.926Z,9.13
2022-10-31T00:30:36.441Z,8.57
2022-10-31T00:33:06.136Z,8.82
2022-10-31T00:35:33.370Z,7.82
2022-10-31T00:37:59.909Z,7.55
2022-10-31T00:40:26.326Z,7.70
2022-10-31T00:42:52.747Z,8.20
2022-10-31T00:45:19.612Z,7.95
2022-10-31T00:47:46.014Z,8.07
2022-10-31T00:50:12.459Z,8.02
2022-10-31T00:52:38.877Z,8.40
2022-10-31T00:55:05.357Z,7.40
2022-10-31T00:57:31.801Z,7.38
2022-10-31T00:59:58.204Z,7.22
2022-10-31T01:02:24.764Z,6.90
2022-10-31T01:04:51.256Z,7.82
2022-10-31T01:07:17.669Z,6.82
2022-10-31T01:09:44.093Z,6.85
2022-10-31T01:12:10.550Z,7.05
2022-10-31T01:14:37.199Z,7.20
2022-10-31T01:17:03.785Z,7.15
2022-10-31T01:19:30.259Z,7.88
2022-10-31T01:21:56.714Z,7.78
2022-10-31T01:24:23.471Z,7.93
2022-10-31T01:26:49.954Z,7.25
2022-10-31T01:29:16.397Z,8.27
2022-10-31T01:31:42.878Z,7.88
2022-10-31T01:34:14.109Z,7.88
2022-10-31T01:36:40.726Z,8.98
2022-10-31T01:39:10.643Z,7.97
2022-10-31T01:41:41.453Z,9.00
2022-10-31T01:44:16.894Z,8.60
2022-10-31T01:46:49.572Z,8.00
2022-10-31T01:49:29.942Z,7.93
2022-10-31T01:52:01.456Z,8.25
2022-10-31T01:54:35.760Z,8.40
2022-10-31T01:57:03.879Z,8.45
2022-10-31T01:59:34.127Z,8.13
2022-10-31T02:02:00.710Z,8.10
2022-10-31T02:04:27.747Z,7.97
2022-10-31T02:07:06.006Z,7.80
2022-10-31T02:09:33.782Z,7.93
2022-10-31T02:12:01.058Z,7.35
2022-10-31T02:14:30.366Z,7.40
2022-10-31T02:16:57.602Z,8.10
2022-10-31T02:20:17.042Z,7.55
2022-10-31T02:22:55.342Z,9.15
2022-10-31T02:25:43.546Z,7.60
2022-10-31T02:28:31.701Z,7.88
2022-10-31T02:31:23.156Z,9.20
2022-10-31T02:33:54.263Z,10.38
2022-10-31T02:36:39.336Z,11.30
2022-10-31T02:39:25.370Z,13.32
2022-10-31T02:42:14.876Z,13.95
2022-10-31T02:45:06.846Z,11.70
2022-10-31T02:47:38.846Z,11.35
2022-10-31T02:50:11.162Z,12.40
2022-10-31T02:52:37.804Z,9.45
2022-10-31T02:55:11.250Z,8.48
2022-10-31T03:00:09.280Z,9.05
2022-10-31T03:02:58.889Z,8.23
2022-10-31T03:06:03.039Z,7.90
2022-10-31T03:08:43.680Z,8.20
2022-10-31T03:11:10.838Z,8.68
2022-10-31T03:14:07.013Z,8.63
2022-10-31T03:17:00.372Z,9.02
2022-10-31T03:19:40.040Z,8.85
2022-10-31T03:22:16.321Z,9.60
2022-10-31T03:24:43.548Z,10.23
2022-10-31T03:27:14.626Z,10.15
2022-10-31T03:29:43.425Z,9.02
2022-10-31T03:32:20.679Z,10.38
2022-10-31T03:34:49.124Z,8.98
2022-10-31T03:37:19.130Z,8.27
2022-10-31T03:39:48.203Z,9.15
2022-10-31T03:42:24.437Z,9.52
2022-10-31T03:45:14.058Z,7.93
2022-10-31T03:47:41.955Z,8.93
2022-10-31T03:50:10.210Z,9.52
2022-10-31T03:52:51.360Z,11.48
2022-10-31T03:55:21.472Z,10.63
2022-10-31T03:57:57.256Z,10.60
2022-10-31T04:00:24.398Z,10.00
2022-10-31T04:03:09.665Z,10.25
2022-10-31T04:05:38.016Z,9.90
2022-10-31T04:08:12.237Z,9.98
2022-10-31T04:10:39.758Z,9.95
2022-10-31T04:13:11.353Z,9.50
2022-10-31T04:15:39.265Z,10.63
2022-10-31T04:18:06.542Z,10.80
2022-10-31T04:20:36.036Z,11.77
2022-10-31T04:23:03.977Z,12.70
2022-10-31T04:25:30.632Z,11.63
2022-10-31T04:27:57.423Z,11.38
2022-10-31T04:30:24.132Z,12.45
2022-10-31T04:32:50.521Z,12.13
2022-10-31T04:35:17.167Z,11.50
2022-10-31T04:37:43.609Z,12.07
2022-10-31T04:40:10.673Z,10.75
2022-10-31T04:42:37.135Z,11.00
2022-10-31T04:45:03.808Z,11.13
2022-10-31T04:47:33.212Z,9.85
2022-10-31T04:49:59.756Z,11.00
2022-10-31T04:52:26.299Z,11.18
2022-10-31T04:54:52.685Z,10.48
2022-10-31T04:57:19.161Z,10.98
2022-10-31T04:59:45.567Z,11.60
2022-10-31T05:02:12.136Z,12.63
2022-10-31T05:04:38.749Z,12.30
2022-10-31T05:07:05.171Z,13.88
2022-10-31T05:09:31.555Z,12.40
2022-10-31T05:11:58.037Z,12.75
2022-10-31T05:14:24.513Z,11.88
2022-10-31T05:16:50.933Z,11.85
2022-10-31T05:19:17.316Z,11.52
2022-10-31T05:21:43.791Z,11.80
2022-10-31T05:24:10.308Z,11.38
2022-10-31T05:26:36.744Z,11.50
2022-10-31T05:29:03.219Z,10.70
2022-10-31T05:31:29.624Z,11.50
2022-10-31T05:33:56.005Z,11.27
2022-10-31T05:36:22.398Z,10.40
2022-10-31T05:38:48.784Z,10.73
2022-10-31T05:41:15.279Z,10.65
2022-10-31T05:43:41.677Z,11.68
2022-10-31T05:46:08.113Z,11.50
2022-10-31T05:48:34.525Z,12.55
2022-10-31T05:51:00.931Z,12.30
2022-10-31T05:53:27.324Z,12.07
2022-10-31T05:55:53.719Z,11.68
2022-10-31T05:58:20.115Z,12.65
2022-10-31T06:00:46.523Z,12.25
2022-10-31T06:03:12.957Z,12.63
2022-10-31T06:05:39.396Z,12.70
2022-10-31T06:08:06.214Z,12.13
2022-10-31T06:10:32.614Z,12.90
2022-10-31T06:12:59.180Z,14.68
2022-10-31T06:15:25.709Z,14.32
2022-10-31T06:17:59.962Z,13.95
2022-10-31T06:20:26.727Z,13.85
2022-10-31T06:22:53.227Z,12.95
2022-10-31T06:25:19.649Z,16.05
2022-10-31T06:27:46.050Z,12.88
2022-10-31T06:30:12.965Z,11.93
2022-10-31T06:32:39.383Z,12.35
2022-10-31T06:35:06.233Z,13.25
2022-10-31T06:37:32.638Z,12.02
2022-10-31T06:39:59.050Z,10.65
2022-10-31T06:42:25.470Z,11.85
2022-10-31T06:44:51.866Z,10.32
2022-10-31T06:47:18.253Z,11.43
2022-10-31T06:49:44.660Z,10.35
2022-10-31T06:52:11.916Z,10.85
2022-10-31T06:54:38.351Z,10.80
2022-10-31T06:57:04.726Z,10.68
2022-10-31T06:59:31.138Z,9.93
2022-10-31T07:01:59.152Z,10.63
2022-10-31T07:04:25.678Z,9.45
2022-10-31T07:06:53.629Z,11.20
2022-10-31T07:09:20.365Z,8.82
2022-10-31T07:11:46.753Z,8.95
2022-10-31T07:14:13.241Z,8.50
2022-10-31T07:16:39.626Z,8.85
2022-10-31T07:19:06.031Z,7.82
2022-10-31T07:21:32.467Z,8.18
2022-10-31T07:23:58.843Z,7.63
2022-10-31T07:26:25.286Z,7.13
2022-10-31T07:28:51.717Z,7.68
2022-10-31T07:31:18.109Z,7.07
2022-10-31T07:33:44.553Z,7.63
2022-10-31T07:36:10.947Z,6.88
2022-10-31T07:38:37.437Z,7.38
2022-10-31T07:41:04.044Z,7.32
2022-10-31T07:43:30.518Z,7.78
2022-10-31T07:45:57.074Z,7.75
2022-10-31T07:48:23.527Z,7.38
2022-10-31T07:50:50.057Z,7.63
2022-10-31T07:53:16.787Z,6.95
2022-10-31T07:55:44.168Z,7.20
2022-10-31T07:58:12.928Z,7.03
2022-10-31T08:00:41.839Z,6.80
2022-10-31T08:03:10.921Z,8.13
2022-10-31T08:05:37.713Z,6.05
2022-10-31T08:08:05.348Z,6.95
2022-10-31T08:10:32.813Z,6.00
2022-10-31T08:13:05.299Z,6.82
2022-10-31T08:15:32.165Z,6.27
2022-10-31T08:17:59.231Z,7.78
2022-10-31T08:20:25.905Z,7.45
2022-10-31T08:23:00.437Z,6.55
2022-10-31T08:25:30.933Z,8.02
2022-10-31T08:30:30.588Z,6.57
2022-10-31T08:33:18.295Z,6.70
2022-10-31T08:35:45.089Z,7.47
2022-10-31T08:38:13.092Z,6.75
2022-10-31T08:40:39.659Z,7.07
2022-10-31T08:43:16.748Z,7.25
2022-10-31T08:45:44.559Z,7.10
2022-10-31T08:48:14.390Z,7.65
2022-10-31T08:50:41.387Z,7.28
2022-10-31T08:53:13.204Z,7.05
2022-10-31T08:55:40.930Z,6.75
2022-10-31T08:58:10.544Z,7.20
2022-10-31T09:00:37.479Z,9.23
2022-10-31T09:03:12.984Z,9.23
2022-10-31T09:05:40.265Z,9.13
2022-10-31T09:08:11.691Z,8.13
2022-10-31T09:10:42.015Z,9.93
2022-10-31T09:13:11.969Z,9.30
2022-10-31T09:15:40.689Z,8.38
2022-10-31T09:18:08.598Z,8.38
2022-10-31T09:20:36.866Z,6.78
2022-10-31T09:23:15.366Z,7.18
2022-10-31T09:25:45.076Z,6.10
2022-10-31T09:28:17.740Z,5.85
2022-10-31T09:30:50.419Z,5.53
2022-10-31T09:33:17.682Z,6.13
2022-10-31T09:35:44.570Z,5.43
2022-10-31T09:38:16.369Z,6.38
2022-10-31T09:41:05.846Z,6.50
2022-10-31T09:43:53.505Z,5.70
2022-10-31T09:46:44.987Z,5.85
2022-10-31T09:49:42.733Z,6.10
2022-10-31T09:52:23.025Z,5.55
2022-10-31T09:55:05.906Z,5.75
2022-10-31T09:57:35.799Z,6.28
2022-10-31T10:00:05.588Z,6.25
2022-10-31T10:02:35.824Z,5.97
2022-10-31T10:05:06.323Z,6.90
2022-10-31T10:07:50.448Z,6.55
2022-10-31T10:10:20.055Z,7.07
2022-10-31T10:12:52.377Z,5.88
2022-10-31T10:15:31.158Z,5.85
2022-10-31T10:18:03.325Z,6.85
2022-10-31T10:20:47.489Z,6.57
2022-10-31T10:23:35.559Z,5.82
2022-10-31T10:26:18.192Z,6.20
2022-10-31T10:28:49.601Z,6.00
2022-10-31T10:31:19.555Z,5.75
2022-10-31T10:33:59.631Z,5.90
2022-10-31T10:36:35.664Z,5.60
2022-10-31T10:39:09.824Z,6.07
2022-10-31T10:41:37.429Z,5.63
2022-10-31T10:44:09.735Z,5.68
2022-10-31T10:47:02.389Z,5.07
2022-10-31T10:49:51.485Z,5.78
2022-10-31T10:52:43.190Z,5.35
2022-10-31T10:55:28.605Z,4.95
2022-10-31T10:58:11.442Z,6.07
2022-10-31T11:00:50.829Z,5.18
2022-10-31T11:03:18.861Z,5.65
2022-10-31T11:05:50.989Z,6.18
2022-10-31T11:08:37.199Z,5.68
2022-10-31T11:11:08.322Z,5.72
2022-10-31T11:13:36.657Z,8.55
2022-10-31T11:16:28.936Z,7.70
2022-10-31T11:19:08.466Z,6.45
2022-10-31T11:21:35.670Z,6.38
2022-10-31T11:24:14.598Z,5.40
2022-10-31T11:26:43.484Z,5.63
2022-10-31T11:29:25.839Z,5.43
2022-10-31T11:32:01.628Z,6.37
2022-10-31T11:34:34.379Z,5.28
2022-10-31T11:37:17.996Z,5.35
2022-10-31T11:39:47.150Z,4.60
2022-10-31T11:42:14.123Z,5.20
2022-10-31T11:44:44.418Z,4.88
2022-10-31T11:47:15.705Z,5.63
2022-10-31T11:49:44.814Z,4.78
2022-10-31T11:52:20.662Z,6.05
2022-10-31T11:54:58.180Z,5.60
2022-10-31T11:57:33.227Z,5.30
2022-10-31T12:00:01.615Z,6.10
2022-10-31T12:02:28.541Z,6.00
2022-10-31T12:05:10.458Z,5.82
2022-10-31T12:07:36.874Z,5.82
2022-10-31T12:10:11.753Z,5.50
2022-10-31T12:12:44.488Z,5.15
2022-10-31T12:15:30.256Z,5.65
2022-10-31T12:18:13.966Z,6.03
2022-10-31T12:21:11.599Z,6.20
2022-10-31T12:24:10.752Z,6.20
2022-10-31T12:26:51.624Z,5.40
2022-10-31T12:29:43.054Z,5.38
2022-10-31T12:32:37.534Z,5.47
2022-10-31T12:35:25.833Z,5.28
2022-10-31T12:38:10.570Z,5.10
2022-10-31T12:40:53.023Z,5.18
2022-10-31T12:43:53.531Z,5.47
2022-10-31T12:46:30.299Z,4.50
2022-10-31T12:49:25.441Z,5.65
2022-10-31T12:52:22.012Z,5.97
2022-10-31T12:54:48.411Z,5.10
2022-10-31T12:57:40.810Z,5.20
2022-10-31T13:00:20.302Z,5.07
2022-10-31T13:02:52.717Z,5.55
2022-10-31T13:05:25.154Z,5.85
2022-10-31T13:08:15.921Z,6.35
2022-10-31T13:11:11.254Z,5.28
2022-10-31T13:13:52.690Z,5.35
2022-10-31T13:16:30.545Z,6.63
2022-10-31T13:19:12.914Z,5.70
2022-10-31T13:21:54.663Z,6.07
2022-10-31T13:24:26.319Z,5.50
2022-10-31T13:26:59.478Z,5.55
2022-10-31T13:29:37.885Z,6.07
2022-10-31T13:32:08.359Z,5.82
2022-10-31T13:34:42.235Z,6.10
2022-10-31T13:37:40.666Z,5.63
2022-10-31T13:40:19.656Z,6.03
2022-10-31T13:43:03.555Z,6.90
2022-10-31T13:45:30.126Z,5.05
2022-10-31T13:48:30.498Z,6.35
2022-10-31T13:51:03.146Z,5.38
2022-10-31T13:53:58.970Z,6.07
2022-10-31T13:56:32.445Z,5.32
2022-10-31T13:59:15.997Z,5.00
2022-10-31T14:01:51.866Z,6.35
2022-10-31T14:04:25.917Z,4.93
2022-10-31T14:07:05.661Z,4.38
2022-10-31T14:09:36.573Z,4.53
2022-10-31T14:12:39.866Z,5.40
2022-10-31T14:15:15.052Z,4.95
2022-10-31T14:17:49.597Z,4.80
2022-10-31T14:20:15.939Z,4.60
2022-10-31T14:22:43.217Z,4.78
2022-10-31T14:25:34.353Z,4.13
2022-10-31T14:28:04.833Z,4.55
2022-10-31T14:30:31.760Z,3.95
2022-10-31T14:33:10.106Z,4.25
2022-10-31T14:35:54.679Z,4.47
2022-10-31T14:38:45.614Z,3.67
2022-10-31T14:41:21.104Z,3.67
2022-10-31T14:44:05.987Z,3.70
2022-10-31T14:46:50.750Z,4.13
2022-10-31T14:49:45.006Z,3.92
2022-10-31T14:52:15.265Z,4.40
2022-10-31T14:55:02.175Z,3.78
2022-10-31T14:57:36.533Z,3.83
2022-10-31T15:00:08.180Z,4.35
2022-10-31T15:02:49.978Z,3.75
2022-10-31T15:05:17.416Z,4.05
2022-10-31T15:07:55.136Z,4.43
2022-10-31T15:10:30.962Z,4.30
2022-10-31T15:13:08.928Z,4.18
2022-10-31T15:15:36.159Z,3.60
2022-10-31T15:18:05.621Z,3.72
2022-10-31T15:20:44.022Z,5.45
2022-10-31T15:23:16.117Z,3.75
2022-10-31T15:25:42.642Z,4.25
2022-10-31T15:28:17.647Z,3.90
2022-10-31T15:30:52.472Z,4.20
2022-10-31T15:33:25.245Z,4.85
2022-10-31T15:35:57.121Z,4.18
2022-10-31T15:38:24.606Z,4.43
2022-10-31T15:40:57.623Z,5.00
2022-10-31T15:43:24.299Z,4.00
2022-10-31T15:45:51.021Z,4.07
2022-10-31T15:48:27.515Z,4.40
2022-10-31T15:50:58.543Z,4.88
2022-10-31T15:53:26.494Z,4.85
2022-10-31T15:55:58.658Z,4.80
2022-10-31T15:58:26.225Z,4.20
2022-10-31T16:01:01.502Z,4.82
2022-10-31T16:03:30.643Z,4.38
2022-10-31T16:06:06.442Z,5.03
2022-10-31T16:08:35.813Z,5.35
2022-10-31T16:11:08.132Z,5.32
2022-10-31T16:13:38.275Z,4.77
2022-10-31T16:19:02.042Z,5.55
2022-10-31T16:21:35.730Z,4.68
2022-10-31T16:24:06.629Z,4.63
2022-10-31T16:26:33.979Z,4.82
2022-10-31T16:29:05.696Z,4.60
2022-10-31T16:31:40.610Z,5.45
2022-10-31T16:34:26.280Z,5.35
2022-10-31T16:36:52.904Z,5.57
2022-10-31T16:39:19.362Z,5.57
2022-10-31T16:41:48.403Z,5.93
2022-10-31T16:44:25.102Z,5.95
2022-10-31T16:47:16.079Z,6.13
2022-10-31T16:49:43.967Z,6.10
2022-10-31T16:52:10.642Z,6.45
2022-10-31T16:54:37.091Z,5.72
2022-10-31T16:57:05.256Z,7.45
2022-10-31T16:59:34.292Z,8.27
2022-10-31T17:02:01.837Z,6.05
2022-10-31T17:04:29.328Z,6.25
2022-10-31T17:06:55.742Z,5.90
2022-10-31T17:09:22.192Z,8.07
2022-10-31T17:11:51.434Z,7.82
2022-10-31T17:14:19.519Z,6.45
2022-10-31T17:16:46.002Z,7.93
2022-10-31T17:19:12.597Z,6.18
2022-10-31T17:21:40.460Z,7.20
2022-10-31T17:24:07.527Z,6.68
2022-10-31T17:26:33.970Z,6.75
2022-10-31T17:29:01.958Z,6.25
2022-10-31T17:31:30.625Z,6.43
2022-10-31T17:34:02.036Z,6.47
2022-10-31T17:36:30.317Z,6.32
2022-10-31T17:38:56.778Z,6.80
2022-10-31T17:41:23.381Z,5.72
2022-10-31T17:43:54.273Z,6.25
2022-10-31T17:46:20.657Z,6.50
2022-10-31T17:48:47.077Z,6.07
2022-10-31T17:51:13.492Z,5.78
2022-10-31T17:53:39.990Z,6.53
2022-10-31T17:56:08.406Z,7.55
2022-10-31T17:58:36.767Z,6.80
2022-10-31T18:01:11.764Z,7.38
2022-10-31T18:03:39.019Z,7.03
2022-10-31T18:06:06.531Z,7.65
2022-10-31T18:08:39.814Z,7.43
2022-10-31T18:11:13.293Z,6.85
2022-10-31T18:13:39.806Z,7.15
2022-10-31T18:16:15.086Z,7.22
2022-10-31T18:18:42.436Z,6.72
2022-10-31T18:21:08.912Z,7.72
2022-10-31T18:23:35.370Z,8.02
2022-10-31T18:26:01.894Z,7.60
2022-10-31T18:28:28.435Z,7.75
2022-10-31T18:30:54.906Z,8.38
2022-10-31T18:33:21.463Z,7.50
2022-10-31T18:35:47.904Z,8.43
2022-10-31T18:38:14.490Z,8.02
2022-10-31T18:40:41.099Z,8.93
2022-10-31T18:43:07.592Z,8.52
2022-10-31T18:45:46.348Z,7.70
2022-10-31T18:48:14.740Z,7.80
2022-10-31T18:50:41.904Z,7.55
2022-10-31T18:53:08.514Z,7.32
2022-10-31T18:55:39.910Z,7.78
2022-10-31T18:58:07.751Z,7.90
2022-10-31T19:00:34.168Z,8.50
2022-10-31T19:03:01.476Z,8.40
2022-10-31T19:05:28.155Z,8.80
2022-10-31T19:07:54.546Z,9.70
2022-10-31T19:10:20.992Z,9.45
2022-10-31T19:12:47.383Z,9.18
2022-10-31T19:15:13.807Z,9.27
2022-10-31T19:17:40.198Z,8.55
2022-10-31T19:20:07.358Z,9.65
2022-10-31T19:22:33.915Z,8.45
2022-10-31T19:25:00.601Z,8.55
2022-10-31T19:27:28.123Z,9.75
2022-10-31T19:29:54.583Z,9.52
2022-10-31T19:32:21.156Z,9.23
2022-10-31T19:34:47.568Z,9.88
2022-10-31T19:37:14.046Z,10.15
2022-10-31T19:39:44.182Z,10.10
2022-10-31T19:42:11.878Z,10.63
2022-10-31T19:44:38.286Z,10.68
2022-10-31T19:47:04.867Z,10.13
2022-10-31T19:49:31.378Z,10.55
2022-10-31T19:51:58.146Z,10.18
2022-10-31T19:54:24.566Z,10.40
2022-10-31T19:56:50.978Z,10.23
2022-10-31T19:59:17.363Z,10.20
2022-10-31T20:01:44.008Z,13.40
2022-10-31T20:04:10.586Z,12.70
2022-10-31T20:06:39.558Z,13.93
2022-10-31T20:09:08.701Z,10.85
2022-10-31T20:11:36.973Z,12.27
2022-10-31T20:14:04.199Z,12.65
2022-10-31T20:16:30.658Z,10.93
2022-10-31T20:18:59.435Z,11.85
2022-10-31T20:21:29.714Z,11.90
2022-10-31T20:23:57.954Z,12.00
2022-10-31T20:26:25.114Z,10.68
2022-10-31T20:28:51.857Z,11.23
2022-10-31T20:31:21.709Z,11.93
2022-10-31T20:33:49.489Z,12.25
2022-10-31T20:36:21.084Z,11.35
2022-10-31T20:38:47.830Z,10.60
2022-10-31T20:41:15.346Z,10.10
2022-10-31T20:43:42.131Z,10.27
2022-10-31T20:46:12.154Z,12.02
2022-10-31T20:48:38.762Z,10.73
2022-10-31T20:51:08.016Z,10.23
2022-10-31T20:53:34.624Z,10.60
2022-10-31T20:56:08.423Z,10.82
2022-10-31T20:58:39.178Z,10.85
2022-10-31T21:01:10.797Z,10.63
2022-10-31T21:03:37.330Z,11.15
2022-10-31T21:06:04.599Z,11.00
2022-10-31T21:08:32.600Z,11.90
2022-10-31T21:11:00.332Z,11.30
2022-10-31T21:13:28.436Z,10.93
2022-10-31T21:16:07.370Z,11.90
2022-10-31T21:18:38.277Z,12.05
2022-10-31T21:21:12.486Z,10.60
2022-10-31T21:23:39.100Z,11.18
2022-10-31T21:26:12.893Z,11.65
2022-10-31T21:28:39.611Z,10.73
2022-10-31T21:31:10.934Z,11.27
2022-10-31T21:33:37.955Z,10.93
2022-10-31T21:36:05.270Z,10.90
2022-10-31T21:38:32.058Z,11.98
2022-10-31T21:41:03.642Z,10.60
2022-10-31T21:43:30.662Z,10.50
2022-10-31T21:46:05.840Z,11.02
2022-10-31T21:48:33.090Z,11.88
2022-10-31T21:51:06.165Z,12.20
2022-10-31T21:53:51.234Z,11.27
2022-10-31T21:56:17.677Z,10.93
2022-10-31T21:58:44.082Z,10.20
2022-10-31T22:01:10.598Z,10.38
2022-10-31T22:03:38.350Z,11.13
2022-10-31T22:06:06.548Z,11.30
2022-10-31T22:08:33.401Z,11.18
2022-10-31T22:11:10.650Z,10.95
2022-10-31T22:13:37.583Z,11.40
2022-10-31T22:16:07.459Z,11.80
2022-10-31T22:18:34.884Z,10.75
2022-10-31T22:21:09.215Z,11.45
2022-10-31T22:23:36.463Z,11.02
2022-10-31T22:26:08.440Z,12.00
2022-10-31T22:28:35.667Z,12.18
2022-10-31T22:31:06.212Z,11.75
2022-10-31T22:33:33.382Z,13.55
2022-10-31T22:36:03.094Z,13.30
2022-10-31T22:38:39.973Z,12.10
2022-10-31T22:41:11.562Z,11.85
2022-10-31T22:43:38.690Z,11.95
2022-10-31T22:46:06.631Z,9.90
2022-10-31T22:48:40.531Z,10.85
2022-10-31T22:51:09.328Z,11.30
2022-10-31T22:53:37.640Z,11.02
2022-10-31T22:56:05.664Z,11.15
2022-10-31T22:58:33.701Z,12.02
2022-10-31T23:01:00.814Z,12.35
2022-10-31T23:03:27.631Z,12.95
2022-10-31T23:05:58.590Z,13.43
2022-10-31T23:08:25.895Z,12.27
2022-10-31T23:10:52.546Z,12.68
2022-10-31T23:13:38.686Z,12.55
2022-10-31T23:16:06.705Z,12.25
2022-10-31T23:18:49.581Z,11.98
2022-10-31T23:23:59.183Z,11.05
2022-10-31T23:26:44.528Z,12.30
2022-10-31T23:29:11.013Z,11.13
2022-10-31T23:31:37.454Z,11.13
2022-10-31T23:34:03.854Z,11.77
2022-10-31T23:36:30.258Z,10.10
2022-10-31T23:38:56.666Z,9.68
2022-10-31T23:41:23.664Z,11.18
2022-10-31T23:43:50.080Z,11.38
2022-10-31T23:46:16.551Z,11.70
2022-10-31T23:48:43.031Z,11.48
2022-10-31T23:51:09.435Z,10.48
2022-10-31T23:56:02.238Z,10.85
2022-10-31T23:58:28.623Z,11.07
